sensor_id;sensor_type;location;lat;lon;timestamp;temperature;humidity
16521;DHT22;8373;48.110;11.522;2023-03-01T00:02:22;3.90;63.00
16521;DHT22;8373;48.110;11.522;2023-03-01T00:04:49;3.90;62.80
16521;DHT22;8373;48.110;11.522;2023-03-01T00:07:15;3.80;62.60
16521;DHT22;8373;48.110;11.522;2023-03-01T00:09:42;3.80;62.80
16521;DHT22;8373;48.110;11.522;2023-03-01T00:12:12;3.80;63.00
16521;DHT22;8373;48.110;11.522;2023-03-01T00:14:39;3.80;62.90
16521;DHT22;8373;48.110;11.522;2023-03-01T00:17:06;3.70;63.00
16521;DHT22;8373;48.110;11.522;2023-03-01T00:19:33;3.70;63.20
16521;DHT22;8373;48.110;11.522;2023-03-01T00:22:00;3.70;63.30
16521;DHT22;8373;48.110;11.522;2023-03-01T00:24:27;3.70;63.40
16521;DHT22;8373;48.110;11.522;2023-03-01T00:26:54;3.70;63.70
16521;DHT22;8373;48.110;11.522;2023-03-01T00:29:24;3.80;63.80
16521;DHT22;8373;48.110;11.522;2023-03-01T00:31:51;3.80;63.60
16521;DHT22;8373;48.110;11.522;2023-03-01T00:34:18;3.90;63.30
16521;DHT22;8373;48.110;11.522;2023-03-01T00:36:45;3.90;63.20
16521;DHT22;8373;48.110;11.522;2023-03-01T00:39:14;3.80;63.10
16521;DHT22;8373;48.110;11.522;2023-03-01T00:41:42;3.70;63.30
16521;DHT22;8373;48.110;11.522;2023-03-01T00:44:10;3.70;63.70
16521;DHT22;8373;48.110;11.522;2023-03-01T00:46:38;3.70;63.80
16521;DHT22;8373;48.110;11.522;2023-03-01T00:49:05;3.70;63.80
16521;DHT22;8373;48.110;11.522;2023-03-01T00:51:32;3.70;63.80
16521;DHT22;8373;48.110;11.522;2023-03-01T00:54:01;3.80;63.80
16521;DHT22;8373;48.110;11.522;2023-03-01T00:56:28;3.80;63.90
16521;DHT22;8373;48.110;11.522;2023-03-01T00:58:56;3.80;63.80
16521;DHT22;8373;48.110;11.522;2023-03-01T01:01:25;3.80;63.80
16521;DHT22;8373;48.110;11.522;2023-03-01T01:03:56;3.80;63.40
16521;DHT22;8373;48.110;11.522;2023-03-01T01:06:24;3.70;63.40
16521;DHT22;8373;48.110;11.522;2023-03-01T01:08:52;3.70;63.60
16521;DHT22;8373;48.110;11.522;2023-03-01T01:11:20;3.60;63.70
16521;DHT22;8373;48.110;11.522;2023-03-01T01:13:48;3.50;63.50
16521;DHT22;8373;48.110;11.522;2023-03-01T01:16:16;3.50;64.00
16521;DHT22;8373;48.110;11.522;2023-03-01T01:18:43;3.60;64.10
16521;DHT22;8373;48.110;11.522;2023-03-01T01:21:13;3.50;64.00
16521;DHT22;8373;48.110;11.522;2023-03-01T01:23:41;3.50;64.10
16521;DHT22;8373;48.110;11.522;2023-03-01T01:26:10;3.60;64.20
16521;DHT22;8373;48.110;11.522;2023-03-01T01:28:37;3.60;64.30
16521;DHT22;8373;48.110;11.522;2023-03-01T01:31:04;3.60;64.30
16521;DHT22;8373;48.110;11.522;2023-03-01T01:33:32;3.60;64.10
16521;DHT22;8373;48.110;11.522;2023-03-01T01:35:58;3.60;64.00
16521;DHT22;8373;48.110;11.522;2023-03-01T01:38:27;3.60;64.00
16521;DHT22;8373;48.110;11.522;2023-03-01T01:40:54;3.60;64.00
16521;DHT22;8373;48.110;11.522;2023-03-01T01:43:23;3.60;63.80
16521;DHT22;8373;48.110;11.522;2023-03-01T01:45:50;3.60;63.70
16521;DHT22;8373;48.110;11.522;2023-03-01T01:48:21;3.60;63.60
16521;DHT22;8373;48.110;11.522;2023-03-01T01:50:54;3.60;63.70
16521;DHT22;8373;48.110;11.522;2023-03-01T01:53:22;3.50;63.50
16521;DHT22;8373;48.110;11.522;2023-03-01T01:55:53;3.50;63.70
16521;DHT22;8373;48.110;11.522;2023-03-01T01:58:24;3.50;63.90
16521;DHT22;8373;48.110;11.522;2023-03-01T02:00:53;3.50;63.90
16521;DHT22;8373;48.110;11.522;2023-03-01T02:03:24;3.50;64.10
16521;DHT22;8373;48.110;11.522;2023-03-01T02:05:57;3.60;63.80
16521;DHT22;8373;48.110;11.522;2023-03-01T02:08:29;3.60;63.90
16521;DHT22;8373;48.110;11.522;2023-03-01T02:10:59;3.60;63.60
16521;DHT22;8373;48.110;11.522;2023-03-01T02:13:30;3.60;63.60
16521;DHT22;8373;48.110;11.522;2023-03-01T02:15:57;3.50;63.30
16521;DHT22;8373;48.110;11.522;2023-03-01T02:18:26;3.50;63.50
16521;DHT22;8373;48.110;11.522;2023-03-01T02:21:03;3.40;63.60
16521;DHT22;8373;48.110;11.522;2023-03-01T02:23:31;3.40;64.80
16521;DHT22;8373;48.110;11.522;2023-03-01T02:26:02;3.30;64.10
16521;DHT22;8373;48.110;11.522;2023-03-01T02:28:35;3.30;64.50
16521;DHT22;8373;48.110;11.522;2023-03-01T02:31:03;3.30;64.20
16521;DHT22;8373;48.110;11.522;2023-03-01T02:33:49;3.30;64.30
16521;DHT22;8373;48.110;11.522;2023-03-01T02:36:19;3.30;64.40
16521;DHT22;8373;48.110;11.522;2023-03-01T02:38:47;3.30;64.50
16521;DHT22;8373;48.110;11.522;2023-03-01T02:41:16;3.30;64.80
16521;DHT22;8373;48.110;11.522;2023-03-01T02:43:45;3.40;64.80
16521;DHT22;8373;48.110;11.522;2023-03-01T02:46:17;3.40;64.30
16521;DHT22;8373;48.110;11.522;2023-03-01T02:48:48;3.40;64.20
16521;DHT22;8373;48.110;11.522;2023-03-01T02:51:26;3.40;64.10
16521;DHT22;8373;48.110;11.522;2023-03-01T02:54:04;3.40;64.10
16521;DHT22;8373;48.110;11.522;2023-03-01T02:56:32;3.50;64.40
16521;DHT22;8373;48.110;11.522;2023-03-01T02:59:02;3.50;64.00
16521;DHT22;8373;48.110;11.522;2023-03-01T03:01:29;3.50;63.90
16521;DHT22;8373;48.110;11.522;2023-03-01T03:04:03;3.40;63.90
16521;DHT22;8373;48.110;11.522;2023-03-01T03:06:30;3.40;64.00
16521;DHT22;8373;48.110;11.522;2023-03-01T03:08:57;3.40;64.10
16521;DHT22;8373;48.110;11.522;2023-03-01T03:11:24;3.40;63.90
16521;DHT22;8373;48.110;11.522;2023-03-01T03:13:51;3.30;63.40
16521;DHT22;8373;48.110;11.522;2023-03-01T03:16:19;3.30;63.60
16521;DHT22;8373;48.110;11.522;2023-03-01T03:18:47;3.40;64.00
16521;DHT22;8373;48.110;11.522;2023-03-01T03:21:14;3.30;63.80
16521;DHT22;8373;48.110;11.522;2023-03-01T03:23:42;3.30;63.90
16521;DHT22;8373;48.110;11.522;2023-03-01T03:26:09;3.40;64.00
16521;DHT22;8373;48.110;11.522;2023-03-01T03:28:40;3.30;63.90
16521;DHT22;8373;48.110;11.522;2023-03-01T03:31:08;3.30;64.20
16521;DHT22;8373;48.110;11.522;2023-03-01T03:33:36;3.30;64.00
16521;DHT22;8373;48.110;11.522;2023-03-01T03:36:04;3.20;64.00
16521;DHT22;8373;48.110;11.522;2023-03-01T03:38:31;3.10;64.20
16521;DHT22;8373;48.110;11.522;2023-03-01T03:41:03;3.10;64.30
16521;DHT22;8373;48.110;11.522;2023-03-01T03:43:32;3.00;64.20
16521;DHT22;8373;48.110;11.522;2023-03-01T03:45:59;3.00;64.50
16521;DHT22;8373;48.110;11.522;2023-03-01T03:48:26;3.00;64.70
16521;DHT22;8373;48.110;11.522;2023-03-01T03:50:56;3.10;64.70
16521;DHT22;8373;48.110;11.522;2023-03-01T03:53:25;3.10;64.40
16521;DHT22;8373;48.110;11.522;2023-03-01T03:55:52;3.10;64.40
16521;DHT22;8373;48.110;11.522;2023-03-01T03:58:20;3.10;64.20
16521;DHT22;8373;48.110;11.522;2023-03-01T04:00:49;3.10;63.60
16521;DHT22;8373;48.110;11.522;2023-03-01T04:03:18;3.10;63.50
16521;DHT22;8373;48.110;11.522;2023-03-01T04:05:46;3.10;63.80
16521;DHT22;8373;48.110;11.522;2023-03-01T04:08:14;3.10;63.90
16521;DHT22;8373;48.110;11.522;2023-03-01T04:10:45;3.10;64.00
16521;DHT22;8373;48.110;11.522;2023-03-01T04:13:15;3.10;63.90
16521;DHT22;8373;48.110;11.522;2023-03-01T04:15:43;3.10;63.70
16521;DHT22;8373;48.110;11.522;2023-03-01T04:18:12;3.10;63.40
16521;DHT22;8373;48.110;11.522;2023-03-01T04:20:39;3.00;63.50
16521;DHT22;8373;48.110;11.522;2023-03-01T04:23:07;3.00;63.50
16521;DHT22;8373;48.110;11.522;2023-03-01T04:25:41;3.10;63.80
16521;DHT22;8373;48.110;11.522;2023-03-01T04:28:09;3.00;63.60
16521;DHT22;8373;48.110;11.522;2023-03-01T04:30:36;3.00;63.50
16521;DHT22;8373;48.110;11.522;2023-03-01T04:33:04;3.10;63.60
16521;DHT22;8373;48.110;11.522;2023-03-01T04:35:32;3.00;63.10
16521;DHT22;8373;48.110;11.522;2023-03-01T04:38:00;2.90;63.00
16521;DHT22;8373;48.110;11.522;2023-03-01T04:40:27;2.80;63.40
16521;DHT22;8373;48.110;11.522;2023-03-01T04:42:55;2.70;63.80
16521;DHT22;8373;48.110;11.522;2023-03-01T04:45:22;2.60;63.70
16521;DHT22;8373;48.110;11.522;2023-03-01T04:47:49;2.60;64.20
16521;DHT22;8373;48.110;11.522;2023-03-01T04:50:18;2.60;64.20
16521;DHT22;8373;48.110;11.522;2023-03-01T04:52:47;2.60;64.20
16521;DHT22;8373;48.110;11.522;2023-03-01T04:55:14;2.60;64.10
16521;DHT22;8373;48.110;11.522;2023-03-01T04:57:41;2.60;63.90
16521;DHT22;8373;48.110;11.522;2023-03-01T05:00:12;2.60;64.10
16521;DHT22;8373;48.110;11.522;2023-03-01T05:02:50;2.70;64.30
16521;DHT22;8373;48.110;11.522;2023-03-01T05:05:21;2.70;63.80
16521;DHT22;8373;48.110;11.522;2023-03-01T05:07:51;2.70;63.50
16521;DHT22;8373;48.110;11.522;2023-03-01T05:10:19;2.70;63.60
16521;DHT22;8373;48.110;11.522;2023-03-01T05:12:45;2.70;63.90
16521;DHT22;8373;48.110;11.522;2023-03-01T05:15:14;2.70;63.90
16521;DHT22;8373;48.110;11.522;2023-03-01T05:17:41;2.70;65.00
16521;DHT22;8373;48.110;11.522;2023-03-01T05:20:11;2.70;64.20
16521;DHT22;8373;48.110;11.522;2023-03-01T05:22:38;2.70;64.10
16521;DHT22;8373;48.110;11.522;2023-03-01T05:25:06;2.70;63.60
16521;DHT22;8373;48.110;11.522;2023-03-01T05:27:34;2.70;63.70
16521;DHT22;8373;48.110;11.522;2023-03-01T05:30:01;2.70;64.00
16521;DHT22;8373;48.110;11.522;2023-03-01T05:32:41;2.80;64.10
16521;DHT22;8373;48.110;11.522;2023-03-01T05:35:11;2.70;63.50
16521;DHT22;8373;48.110;11.522;2023-03-01T05:37:40;2.60;63.40
16521;DHT22;8373;48.110;11.522;2023-03-01T05:40:09;2.40;63.70
16521;DHT22;8373;48.110;11.522;2023-03-01T05:42:44;2.40;64.10
16521;DHT22;8373;48.110;11.522;2023-03-01T05:45:12;2.40;64.40
16521;DHT22;8373;48.110;11.522;2023-03-01T05:47:41;2.50;64.70
16521;DHT22;8373;48.110;11.522;2023-03-01T05:50:11;2.50;64.30
16521;DHT22;8373;48.110;11.522;2023-03-01T05:52:38;2.50;64.50
16521;DHT22;8373;48.110;11.522;2023-03-01T05:55:06;2.50;64.40
16521;DHT22;8373;48.110;11.522;2023-03-01T05:57:33;2.50;64.20
16521;DHT22;8373;48.110;11.522;2023-03-01T06:00:00;2.50;64.10
16521;DHT22;8373;48.110;11.522;2023-03-01T06:02:28;2.60;64.10
16521;DHT22;8373;48.110;11.522;2023-03-01T06:04:57;2.60;63.90
16521;DHT22;8373;48.110;11.522;2023-03-01T06:07:24;2.60;63.80
16521;DHT22;8373;48.110;11.522;2023-03-01T06:09:51;2.50;63.40
16521;DHT22;8373;48.110;11.522;2023-03-01T06:12:18;2.40;63.60
16521;DHT22;8373;48.110;11.522;2023-03-01T06:14:45;2.40;64.10
16521;DHT22;8373;48.110;11.522;2023-03-01T06:17:14;2.40;64.20
16521;DHT22;8373;48.110;11.522;2023-03-01T06:19:41;2.40;64.30
16521;DHT22;8373;48.110;11.522;2023-03-01T06:22:09;2.40;64.40
16521;DHT22;8373;48.110;11.522;2023-03-01T06:24:36;2.40;64.40
16521;DHT22;8373;48.110;11.522;2023-03-01T06:27:03;2.30;64.30
16521;DHT22;8373;48.110;11.522;2023-03-01T06:29:30;2.30;64.50
16521;DHT22;8373;48.110;11.522;2023-03-01T06:31:57;2.30;64.50
16521;DHT22;8373;48.110;11.522;2023-03-01T06:34:24;2.20;64.60
16521;DHT22;8373;48.110;11.522;2023-03-01T06:36:50;2.20;64.90
16521;DHT22;8373;48.110;11.522;2023-03-01T06:39:19;2.20;65.20
16521;DHT22;8373;48.110;11.522;2023-03-01T06:41:46;2.30;65.10
16521;DHT22;8373;48.110;11.522;2023-03-01T06:44:13;2.30;64.70
16521;DHT22;8373;48.110;11.522;2023-03-01T06:46:40;2.30;64.60
16521;DHT22;8373;48.110;11.522;2023-03-01T06:49:07;2.40;64.70
16521;DHT22;8373;48.110;11.522;2023-03-01T06:51:35;2.40;64.60
16521;DHT22;8373;48.110;11.522;2023-03-01T06:54:03;2.40;64.30
16521;DHT22;8373;48.110;11.522;2023-03-01T06:56:31;2.40;64.40
16521;DHT22;8373;48.110;11.522;2023-03-01T06:58:59;2.40;64.50
16521;DHT22;8373;48.110;11.522;2023-03-01T07:01:26;2.50;64.70
16521;DHT22;8373;48.110;11.522;2023-03-01T07:03:53;2.50;64.60
16521;DHT22;8373;48.110;11.522;2023-03-01T07:06:19;2.50;64.20
16521;DHT22;8373;48.110;11.522;2023-03-01T07:08:46;2.50;64.30
16521;DHT22;8373;48.110;11.522;2023-03-01T07:11:14;2.50;64.30
16521;DHT22;8373;48.110;11.522;2023-03-01T07:13:42;2.50;64.80
16521;DHT22;8373;48.110;11.522;2023-03-01T07:16:09;2.60;64.30
16521;DHT22;8373;48.110;11.522;2023-03-01T07:18:36;2.50;64.00
16521;DHT22;8373;48.110;11.522;2023-03-01T07:21:06;2.50;64.20
16521;DHT22;8373;48.110;11.522;2023-03-01T07:23:33;2.50;64.00
16521;DHT22;8373;48.110;11.522;2023-03-01T07:26:00;2.40;63.90
16521;DHT22;8373;48.110;11.522;2023-03-01T07:28:28;2.40;64.20
16521;DHT22;8373;48.110;11.522;2023-03-01T07:31:00;2.40;64.40
16521;DHT22;8373;48.110;11.522;2023-03-01T07:33:27;2.40;64.70
16521;DHT22;8373;48.110;11.522;2023-03-01T07:35:58;2.40;64.50
16521;DHT22;8373;48.110;11.522;2023-03-01T07:38:26;2.50;64.70
16521;DHT22;8373;48.110;11.522;2023-03-01T07:40:53;2.50;64.50
16521;DHT22;8373;48.110;11.522;2023-03-01T07:43:20;2.50;64.10
16521;DHT22;8373;48.110;11.522;2023-03-01T07:45:47;2.60;64.10
16521;DHT22;8373;48.110;11.522;2023-03-01T07:48:15;2.60;64.10
16521;DHT22;8373;48.110;11.522;2023-03-01T07:50:42;2.60;64.00
16521;DHT22;8373;48.110;11.522;2023-03-01T07:53:09;2.60;63.80
16521;DHT22;8373;48.110;11.522;2023-03-01T07:55:36;2.50;63.90
16521;DHT22;8373;48.110;11.522;2023-03-01T07:58:03;2.50;64.40
16521;DHT22;8373;48.110;11.522;2023-03-01T08:00:30;2.50;64.70
16521;DHT22;8373;48.110;11.522;2023-03-01T08:02:59;2.60;64.80
16521;DHT22;8373;48.110;11.522;2023-03-01T08:05:28;2.70;64.60
16521;DHT22;8373;48.110;11.522;2023-03-01T08:07:56;2.80;64.10
16521;DHT22;8373;48.110;11.522;2023-03-01T08:10:22;2.90;64.00
16521;DHT22;8373;48.110;11.522;2023-03-01T08:12:51;3.00;65.60
16521;DHT22;8373;48.110;11.522;2023-03-01T08:15:19;3.20;68.70
16521;DHT22;8373;48.110;11.522;2023-03-01T08:17:49;3.50;70.00
16521;DHT22;8373;48.110;11.522;2023-03-01T08:20:16;3.80;69.90
16521;DHT22;8373;48.110;11.522;2023-03-01T08:22:45;3.90;65.70
16521;DHT22;8373;48.110;11.522;2023-03-01T08:25:11;3.80;63.30
16521;DHT22;8373;48.110;11.522;2023-03-01T08:27:38;3.70;63.70
16521;DHT22;8373;48.110;11.522;2023-03-01T08:30:07;3.70;62.80
16521;DHT22;8373;48.110;11.522;2023-03-01T08:32:38;3.50;62.60
16521;DHT22;8373;48.110;11.522;2023-03-01T08:35:09;3.50;63.80
16521;DHT22;8373;48.110;11.522;2023-03-01T08:37:35;3.60;63.20
16521;DHT22;8373;48.110;11.522;2023-03-01T08:40:05;3.60;62.90
16521;DHT22;8373;48.110;11.522;2023-03-01T08:42:35;3.50;62.70
16521;DHT22;8373;48.110;11.522;2023-03-01T08:45:03;3.60;62.10
16521;DHT22;8373;48.110;11.522;2023-03-01T08:47:30;3.70;61.40
16521;DHT22;8373;48.110;11.522;2023-03-01T08:49:56;3.60;61.10
16521;DHT22;8373;48.110;11.522;2023-03-01T08:52:24;3.60;61.40
16521;DHT22;8373;48.110;11.522;2023-03-01T08:54:51;3.70;61.70
16521;DHT22;8373;48.110;11.522;2023-03-01T08:57:20;3.80;61.50
16521;DHT22;8373;48.110;11.522;2023-03-01T08:59:46;3.90;60.80
16521;DHT22;8373;48.110;11.522;2023-03-01T09:02:15;3.80;60.50
16521;DHT22;8373;48.110;11.522;2023-03-01T09:04:43;3.80;60.40
16521;DHT22;8373;48.110;11.522;2023-03-01T09:07:10;3.70;60.50
16521;DHT22;8373;48.110;11.522;2023-03-01T09:09:37;3.70;60.90
16521;DHT22;8373;48.110;11.522;2023-03-01T09:12:04;3.70;61.10
16521;DHT22;8373;48.110;11.522;2023-03-01T09:14:33;3.70;61.00
16521;DHT22;8373;48.110;11.522;2023-03-01T09:17:00;3.80;61.10
16521;DHT22;8373;48.110;11.522;2023-03-01T09:19:28;3.80;60.90
16521;DHT22;8373;48.110;11.522;2023-03-01T09:21:55;3.90;60.90
16521;DHT22;8373;48.110;11.522;2023-03-01T09:24:24;4.00;60.40
16521;DHT22;8373;48.110;11.522;2023-03-01T09:26:53;4.00;60.10
16521;DHT22;8373;48.110;11.522;2023-03-01T09:29:20;4.10;60.10
16521;DHT22;8373;48.110;11.522;2023-03-01T09:31:49;4.10;59.90
16521;DHT22;8373;48.110;11.522;2023-03-01T09:34:16;4.20;60.00
16521;DHT22;8373;48.110;11.522;2023-03-01T09:36:48;4.20;60.00
16521;DHT22;8373;48.110;11.522;2023-03-01T09:39:15;4.30;59.90
16521;DHT22;8373;48.110;11.522;2023-03-01T09:41:47;4.30;59.60
16521;DHT22;8373;48.110;11.522;2023-03-01T09:44:28;4.30;59.80
16521;DHT22;8373;48.110;11.522;2023-03-01T09:46:59;4.40;59.80
16521;DHT22;8373;48.110;11.522;2023-03-01T09:49:28;4.30;59.40
16521;DHT22;8373;48.110;11.522;2023-03-01T09:52:00;4.30;59.50
16521;DHT22;8373;48.110;11.522;2023-03-01T09:54:30;4.20;59.50
16521;DHT22;8373;48.110;11.522;2023-03-01T09:57:04;4.30;59.90
16521;DHT22;8373;48.110;11.522;2023-03-01T09:59:39;4.30;59.60
16521;DHT22;8373;48.110;11.522;2023-03-01T10:02:23;4.30;59.30
16521;DHT22;8373;48.110;11.522;2023-03-01T10:04:51;4.40;59.50
16521;DHT22;8373;48.110;11.522;2023-03-01T10:07:30;4.50;59.60
16521;DHT22;8373;48.110;11.522;2023-03-01T10:09:59;4.50;59.30
16521;DHT22;8373;48.110;11.522;2023-03-01T10:12:34;4.60;59.10
16521;DHT22;8373;48.110;11.522;2023-03-01T10:15:05;4.60;58.80
16521;DHT22;8373;48.110;11.522;2023-03-01T10:17:41;4.60;58.90
16521;DHT22;8373;48.110;11.522;2023-03-01T10:20:17;4.60;58.80
16521;DHT22;8373;48.110;11.522;2023-03-01T10:22:45;4.50;58.90
16521;DHT22;8373;48.110;11.522;2023-03-01T10:25:19;4.40;59.20
16521;DHT22;8373;48.110;11.522;2023-03-01T10:27:51;4.40;59.30
16521;DHT22;8373;48.110;11.522;2023-03-01T10:30:21;4.60;59.30
16521;DHT22;8373;48.110;11.522;2023-03-01T10:32:52;4.60;59.20
16521;DHT22;8373;48.110;11.522;2023-03-01T10:35:22;4.80;59.20
16521;DHT22;8373;48.110;11.522;2023-03-01T10:38:02;5.00;59.10
16521;DHT22;8373;48.110;11.522;2023-03-01T10:40:29;5.50;59.00
16521;DHT22;8373;48.110;11.522;2023-03-01T10:42:58;5.90;57.90
16521;DHT22;8373;48.110;11.522;2023-03-01T10:45:37;6.40;56.20
16521;DHT22;8373;48.110;11.522;2023-03-01T10:48:13;6.80;55.50
16521;DHT22;8373;48.110;11.522;2023-03-01T10:50:42;7.20;54.30
16521;DHT22;8373;48.110;11.522;2023-03-01T10:53:24;7.50;53.00
16521;DHT22;8373;48.110;11.522;2023-03-01T10:56:00;7.80;51.60
16521;DHT22;8373;48.110;11.522;2023-03-01T10:58:28;8.20;51.40
16521;DHT22;8373;48.110;11.522;2023-03-01T11:00:57;8.30;50.50
16521;DHT22;8373;48.110;11.522;2023-03-01T11:03:28;8.90;50.70
16521;DHT22;8373;48.110;11.522;2023-03-01T11:06:20;9.90;49.00
16521;DHT22;8373;48.110;11.522;2023-03-01T11:08:48;10.20;46.10
16521;DHT22;8373;48.110;11.522;2023-03-01T11:11:26;10.30;44.90
16521;DHT22;8373;48.110;11.522;2023-03-01T11:13:58;10.10;44.00
16521;DHT22;8373;48.110;11.522;2023-03-01T11:16:34;9.90;46.60
16521;DHT22;8373;48.110;11.522;2023-03-01T11:19:18;10.20;45.80
16521;DHT22;8373;48.110;11.522;2023-03-01T11:21:54;10.40;44.20
16521;DHT22;8373;48.110;11.522;2023-03-01T11:24:28;11.00;44.80
16521;DHT22;8373;48.110;11.522;2023-03-01T11:26:56;11.70;43.10
16521;DHT22;8373;48.110;11.522;2023-03-01T11:29:29;12.00;41.80
16521;DHT22;8373;48.110;11.522;2023-03-01T11:32:01;12.00;41.60
16521;DHT22;8373;48.110;11.522;2023-03-01T11:34:38;12.30;41.40
16521;DHT22;8373;48.110;11.522;2023-03-01T11:37:15;12.40;40.30
16521;DHT22;8373;48.110;11.522;2023-03-01T11:39:49;12.40;40.10
16521;DHT22;8373;48.110;11.522;2023-03-01T11:42:20;13.00;39.10
16521;DHT22;8373;48.110;11.522;2023-03-01T11:44:49;13.20;38.70
16521;DHT22;8373;48.110;11.522;2023-03-01T11:47:28;14.40;38.90
16521;DHT22;8373;48.110;11.522;2023-03-01T11:50:09;15.30;37.30
16521;DHT22;8373;48.110;11.522;2023-03-01T11:52:46;16.60;34.60
16521;DHT22;8373;48.110;11.522;2023-03-01T11:55:28;17.00;32.10
16521;DHT22;8373;48.110;11.522;2023-03-01T11:58:14;16.90;31.70
16521;DHT22;8373;48.110;11.522;2023-03-01T12:01:14;17.70;31.50
16521;DHT22;8373;48.110;11.522;2023-03-01T12:04:26;18.40;30.30
16521;DHT22;8373;48.110;11.522;2023-03-01T12:07:00;19.20;29.40
16521;DHT22;8373;48.110;11.522;2023-03-01T12:09:38;19.60;28.80
16521;DHT22;8373;48.110;11.522;2023-03-01T12:12:27;19.80;28.30
16521;DHT22;8373;48.110;11.522;2023-03-01T12:18:26;20.70;27.00
16521;DHT22;8373;48.110;11.522;2023-03-01T12:21:00;21.10;26.90
16521;DHT22;8373;48.110;11.522;2023-03-01T12:23:53;21.90;26.60
16521;DHT22;8373;48.110;11.522;2023-03-01T12:26:28;22.20;25.80
16521;DHT22;8373;48.110;11.522;2023-03-01T12:29:06;21.60;25.70
16521;DHT22;8373;48.110;11.522;2023-03-01T12:32:00;21.60;25.70
16521;DHT22;8373;48.110;11.522;2023-03-01T12:34:42;21.10;25.50
16521;DHT22;8373;48.110;11.522;2023-03-01T12:37:32;19.90;25.90
16521;DHT22;8373;48.110;11.522;2023-03-01T12:40:34;18.80;26.90
16521;DHT22;8373;48.110;11.522;2023-03-01T12:43:21;17.00;28.30
16521;DHT22;8373;48.110;11.522;2023-03-01T12:48:50;15.90;31.20
16521;DHT22;8373;48.110;11.522;2023-03-01T12:51:23;15.90;31.10
16521;DHT22;8373;48.110;11.522;2023-03-01T12:53:51;16.50;31.60
16521;DHT22;8373;48.110;11.522;2023-03-01T12:56:23;17.00;30.70
16521;DHT22;8373;48.110;11.522;2023-03-01T12:58:57;16.90;30.30
16521;DHT22;8373;48.110;11.522;2023-03-01T13:01:37;16.40;30.70
16521;DHT22;8373;48.110;11.522;2023-03-01T13:04:27;16.00;31.40
16521;DHT22;8373;48.110;11.522;2023-03-01T13:07:11;15.70;32.20
16521;DHT22;8373;48.110;11.522;2023-03-01T13:09:44;15.20;32.50
16521;DHT22;8373;48.110;11.522;2023-03-01T13:12:52;14.50;33.30
16521;DHT22;8373;48.110;11.522;2023-03-01T13:15:34;13.90;35.00
16521;DHT22;8373;48.110;11.522;2023-03-01T13:18:03;13.50;36.20
16521;DHT22;8373;48.110;11.522;2023-03-01T13:20:34;13.30;36.60
16521;DHT22;8373;48.110;11.522;2023-03-01T13:23:13;12.90;36.80
16521;DHT22;8373;48.110;11.522;2023-03-01T13:26:09;12.50;37.80
16521;DHT22;8373;48.110;11.522;2023-03-01T13:28:53;12.10;38.60
16521;DHT22;8373;48.110;11.522;2023-03-01T13:34:55;11.70;39.60
16521;DHT22;8373;48.110;11.522;2023-03-01T13:37:33;11.60;40.30
16521;DHT22;8373;48.110;11.522;2023-03-01T13:42:48;11.10;41.30
16521;DHT22;8373;48.110;11.522;2023-03-01T13:45:21;11.10;41.80
16521;DHT22;8373;48.110;11.522;2023-03-01T13:47:52;11.20;42.30
16521;DHT22;8373;48.110;11.522;2023-03-01T13:50:23;11.30;42.20
16521;DHT22;8373;48.110;11.522;2023-03-01T13:52:53;11.40;41.80
16521;DHT22;8373;48.110;11.522;2023-03-01T13:55:26;11.40;41.80
16521;DHT22;8373;48.110;11.522;2023-03-01T13:57:56;11.40;42.00
16521;DHT22;8373;48.110;11.522;2023-03-01T14:00:34;11.40;42.00
16521;DHT22;8373;48.110;11.522;2023-03-01T14:03:03;11.20;41.90
16521;DHT22;8373;48.110;11.522;2023-03-01T14:05:30;11.10;42.60
16521;DHT22;8373;48.110;11.522;2023-03-01T14:07:57;11.10;42.60
16521;DHT22;8373;48.110;11.522;2023-03-01T14:10:32;10.90;42.70
16521;DHT22;8373;48.110;11.522;2023-03-01T14:13:17;10.80;43.00
16521;DHT22;8373;48.110;11.522;2023-03-01T14:16:00;10.60;43.20
16521;DHT22;8373;48.110;11.522;2023-03-01T14:18:35;10.50;43.80
16521;DHT22;8373;48.110;11.522;2023-03-01T14:21:08;10.50;44.00
16521;DHT22;8373;48.110;11.522;2023-03-01T14:23:38;10.50;44.20
16521;DHT22;8373;48.110;11.522;2023-03-01T14:26:08;10.60;44.40
16521;DHT22;8373;48.110;11.522;2023-03-01T14:28:38;10.50;44.20
16521;DHT22;8373;48.110;11.522;2023-03-01T14:31:34;10.50;44.10
16521;DHT22;8373;48.110;11.522;2023-03-01T14:34:01;10.40;44.70
16521;DHT22;8373;48.110;11.522;2023-03-01T14:36:29;10.50;45.70
16521;DHT22;8373;48.110;11.522;2023-03-01T14:38:57;10.50;44.80
16521;DHT22;8373;48.110;11.522;2023-03-01T14:41:32;10.50;45.00
16521;DHT22;8373;48.110;11.522;2023-03-01T14:44:03;10.50;44.90
16521;DHT22;8373;48.110;11.522;2023-03-01T14:46:35;10.40;44.80
16521;DHT22;8373;48.110;11.522;2023-03-01T14:49:07;10.30;45.30
16521;DHT22;8373;48.110;11.522;2023-03-01T14:51:37;10.10;45.40
16521;DHT22;8373;48.110;11.522;2023-03-01T14:54:13;9.90;46.90
16521;DHT22;8373;48.110;11.522;2023-03-01T14:56:46;9.90;47.20
16521;DHT22;8373;48.110;11.522;2023-03-01T14:59:13;9.70;47.20
16521;DHT22;8373;48.110;11.522;2023-03-01T15:01:42;9.70;47.60
16521;DHT22;8373;48.110;11.522;2023-03-01T15:04:12;9.60;48.00
16521;DHT22;8373;48.110;11.522;2023-03-01T15:06:40;9.70;48.20
16521;DHT22;8373;48.110;11.522;2023-03-01T15:09:13;9.70;48.20
16521;DHT22;8373;48.110;11.522;2023-03-01T15:11:41;9.80;48.30
16521;DHT22;8373;48.110;11.522;2023-03-01T15:14:28;9.80;48.40
16521;DHT22;8373;48.110;11.522;2023-03-01T15:16:57;9.80;48.50
16521;DHT22;8373;48.110;11.522;2023-03-01T15:19:26;9.80;48.60
16521;DHT22;8373;48.110;11.522;2023-03-01T15:21:56;9.70;48.80
16521;DHT22;8373;48.110;11.522;2023-03-01T15:24:38;9.70;49.10
16521;DHT22;8373;48.110;11.522;2023-03-01T15:27:14;9.70;49.10
16521;DHT22;8373;48.110;11.522;2023-03-01T15:29:49;9.70;49.10
16521;DHT22;8373;48.110;11.522;2023-03-01T15:32:28;9.70;49.20
16521;DHT22;8373;48.110;11.522;2023-03-01T15:34:56;9.60;49.30
16521;DHT22;8373;48.110;11.522;2023-03-01T15:37:43;9.50;49.60
16521;DHT22;8373;48.110;11.522;2023-03-01T15:40:20;9.50;50.00
16521;DHT22;8373;48.110;11.522;2023-03-01T15:42:49;9.40;50.10
16521;DHT22;8373;48.110;11.522;2023-03-01T15:45:24;9.30;50.40
16521;DHT22;8373;48.110;11.522;2023-03-01T15:47:55;9.30;50.80
16521;DHT22;8373;48.110;11.522;2023-03-01T15:50:25;9.20;50.70
16521;DHT22;8373;48.110;11.522;2023-03-01T15:52:54;9.10;50.80
16521;DHT22;8373;48.110;11.522;2023-03-01T15:55:23;9.10;51.20
16521;DHT22;8373;48.110;11.522;2023-03-01T15:57:58;9.10;51.60
16521;DHT22;8373;48.110;11.522;2023-03-01T16:00:27;9.00;51.80
16521;DHT22;8373;48.110;11.522;2023-03-01T16:02:56;8.90;51.70
16521;DHT22;8373;48.110;11.522;2023-03-01T16:05:25;8.80;52.10
16521;DHT22;8373;48.110;11.522;2023-03-01T16:07:52;8.80;52.50
16521;DHT22;8373;48.110;11.522;2023-03-01T16:10:20;8.80;52.70
16521;DHT22;8373;48.110;11.522;2023-03-01T16:12:47;8.80;52.70
16521;DHT22;8373;48.110;11.522;2023-03-01T16:15:18;8.80;52.80
16521;DHT22;8373;48.110;11.522;2023-03-01T16:17:45;8.80;52.70
16521;DHT22;8373;48.110;11.522;2023-03-01T16:20:14;8.80;52.70